sensor_id;sensor_type;location;lat;lon;timestamp;temperature;humidity
45807;DHT22;31507;51.494;7.518;2023-03-01T00:01:21;-2.60;99.90
45807;DHT22;31507;51.494;7.518;2023-03-01T00:03:47;-2.60;99.90
45807;DHT22;31507;51.494;7.518;2023-03-01T00:06:13;-2.60;99.90
45807;DHT22;31507;51.494;7.518;2023-03-01T00:08:39;-2.60;99.90
45807;DHT22;31507;51.494;7.518;2023-03-01T00:11:19;-2.60;99.90
45807;DHT22;31507;51.494;7.518;2023-03-01T00:13:47;-2.60;99.90
45807;DHT22;31507;51.494;7.518;2023-03-01T00:16:17;-2.70;99.90
45807;DHT22;31507;51.494;7.518;2023-03-01T00:18:43;-2.80;99.90
45807;DHT22;31507;51.494;7.518;2023-03-01T00:21:09;-2.80;99.90
45807;DHT22;31507;51.494;7.518;2023-03-01T00:23:36;-2.90;99.90
45807;DHT22;31507;51.494;7.518;2023-03-01T00:26:05;-2.90;99.90
45807;DHT22;31507;51.494;7.518;2023-03-01T00:28:31;-2.90;99.90
45807;DHT22;31507;51.494;7.518;2023-03-01T00:31:06;-3.00;99.90
45807;DHT22;31507;51.494;7.518;2023-03-01T00:33:32;-3.10;99.90
45807;DHT22;31507;51.494;7.518;2023-03-01T00:35:58;-3.10;99.90
45807;DHT22;31507;51.494;7.518;2023-03-01T00:38:24;-3.10;99.90
45807;DHT22;31507;51.494;7.518;2023-03-01T00:40:50;-3.20;99.90
45807;DHT22;31507;51.494;7.518;2023-03-01T00:43:15;-3.20;99.90
45807;DHT22;31507;51.494;7.518;2023-03-01T00:45:41;-3.20;99.90
45807;DHT22;31507;51.494;7.518;2023-03-01T00:48:07;-3.30;99.90
45807;DHT22;31507;51.494;7.518;2023-03-01T00:50:33;-3.30;99.90
45807;DHT22;31507;51.494;7.518;2023-03-01T00:52:58;-3.30;99.90
45807;DHT22;31507;51.494;7.518;2023-03-01T00:55:25;-3.30;99.90
45807;DHT22;31507;51.494;7.518;2023-03-01T00:57:51;-3.30;99.90
45807;DHT22;31507;51.494;7.518;2023-03-01T01:00:17;-3.20;99.90
45807;DHT22;31507;51.494;7.518;2023-03-01T01:02:43;-3.20;99.90
45807;DHT22;31507;51.494;7.518;2023-03-01T01:05:09;-3.20;99.90
45807;DHT22;31507;51.494;7.518;2023-03-01T01:07:35;-3.30;99.90
45807;DHT22;31507;51.494;7.518;2023-03-01T01:10:01;-3.30;99.90
45807;DHT22;31507;51.494;7.518;2023-03-01T01:12:26;-3.40;99.90
45807;DHT22;31507;51.494;7.518;2023-03-01T01:14:52;-3.40;99.90
45807;DHT22;31507;51.494;7.518;2023-03-01T01:17:19;-3.50;99.90
45807;DHT22;31507;51.494;7.518;2023-03-01T01:19:44;-3.60;99.90
45807;DHT22;31507;51.494;7.518;2023-03-01T01:22:10;-3.60;99.90
45807;DHT22;31507;51.494;7.518;2023-03-01T01:24:36;-3.70;99.90
45807;DHT22;31507;51.494;7.518;2023-03-01T01:27:01;-3.60;99.90
45807;DHT22;31507;51.494;7.518;2023-03-01T01:29:27;-3.70;99.90
45807;DHT22;31507;51.494;7.518;2023-03-01T01:31:53;-3.80;99.90
45807;DHT22;31507;51.494;7.518;2023-03-01T01:34:21;-3.80;99.90
45807;DHT22;31507;51.494;7.518;2023-03-01T01:36:51;-3.80;99.90
45807;DHT22;31507;51.494;7.518;2023-03-01T01:39:19;-3.70;99.90
45807;DHT22;31507;51.494;7.518;2023-03-01T01:41:45;-3.80;99.90
45807;DHT22;31507;51.494;7.518;2023-03-01T01:49:42;-3.70;99.90
45807;DHT22;31507;51.494;7.518;2023-03-01T01:54:53;-3.60;99.90
45807;DHT22;31507;51.494;7.518;2023-03-01T01:57:22;-3.60;99.90
45807;DHT22;31507;51.494;7.518;2023-03-01T01:59:52;-3.60;99.90
45807;DHT22;31507;51.494;7.518;2023-03-01T02:02:20;-3.60;99.90
45807;DHT22;31507;51.494;7.518;2023-03-01T02:04:47;-3.70;99.90
45807;DHT22;31507;51.494;7.518;2023-03-01T02:07:19;-3.60;99.90
45807;DHT22;31507;51.494;7.518;2023-03-01T02:09:48;-3.60;99.90
45807;DHT22;31507;51.494;7.518;2023-03-01T02:12:17;-3.60;99.90
45807;DHT22;31507;51.494;7.518;2023-03-01T02:14:43;-3.60;99.90
45807;DHT22;31507;51.494;7.518;2023-03-01T02:17:11;-3.60;99.90
45807;DHT22;31507;51.494;7.518;2023-03-01T02:19:56;-3.60;99.90
45807;DHT22;31507;51.494;7.518;2023-03-01T02:22:34;-3.60;99.90
45807;DHT22;31507;51.494;7.518;2023-03-01T02:30:48;-3.60;99.90
45807;DHT22;31507;51.494;7.518;2023-03-01T02:33:36;-3.60;99.90
45807;DHT22;31507;51.494;7.518;2023-03-01T02:36:17;-3.70;99.90
45807;DHT22;31507;51.494;7.518;2023-03-01T02:38:43;-3.80;99.90
45807;DHT22;31507;51.494;7.518;2023-03-01T02:41:11;-3.80;99.90
45807;DHT22;31507;51.494;7.518;2023-03-01T02:43:38;-3.80;99.90
45807;DHT22;31507;51.494;7.518;2023-03-01T02:46:14;-3.80;99.90
45807;DHT22;31507;51.494;7.518;2023-03-01T02:56:17;-3.80;99.90
45807;DHT22;31507;51.494;7.518;2023-03-01T02:58:44;-3.80;99.90
45807;DHT22;31507;51.494;7.518;2023-03-01T03:01:18;-3.80;99.90
45807;DHT22;31507;51.494;7.518;2023-03-01T03:03:43;-3.80;99.90
45807;DHT22;31507;51.494;7.518;2023-03-01T03:06:09;-3.80;99.90
45807;DHT22;31507;51.494;7.518;2023-03-01T03:08:35;-3.90;99.90
45807;DHT22;31507;51.494;7.518;2023-03-01T03:11:01;-3.90;99.90
45807;DHT22;31507;51.494;7.518;2023-03-01T03:13:26;-3.90;99.90
45807;DHT22;31507;51.494;7.518;2023-03-01T03:15:57;-3.90;99.90
45807;DHT22;31507;51.494;7.518;2023-03-01T03:18:24;-3.90;99.90
45807;DHT22;31507;51.494;7.518;2023-03-01T03:20:52;-3.90;99.90
45807;DHT22;31507;51.494;7.518;2023-03-01T03:23:21;-3.90;99.90
45807;DHT22;31507;51.494;7.518;2023-03-01T03:25:50;-4.00;99.90
45807;DHT22;31507;51.494;7.518;2023-03-01T03:28:17;-4.10;99.90
45807;DHT22;31507;51.494;7.518;2023-03-01T03:30:43;-4.10;99.90
45807;DHT22;31507;51.494;7.518;2023-03-01T03:33:10;-4.20;99.90
45807;DHT22;31507;51.494;7.518;2023-03-01T03:35:41;-4.10;99.90
45807;DHT22;31507;51.494;7.518;2023-03-01T03:38:09;-4.10;99.90
45807;DHT22;31507;51.494;7.518;2023-03-01T03:40:48;-4.10;99.90
45807;DHT22;31507;51.494;7.518;2023-03-01T03:43:20;-4.10;99.90
45807;DHT22;31507;51.494;7.518;2023-03-01T03:45:47;-4.00;99.90
45807;DHT22;31507;51.494;7.518;2023-03-01T03:48:13;-4.00;99.90
45807;DHT22;31507;51.494;7.518;2023-03-01T03:50:40;-4.00;99.90
45807;DHT22;31507;51.494;7.518;2023-03-01T03:53:09;-4.10;99.90
45807;DHT22;31507;51.494;7.518;2023-03-01T03:55:35;-4.10;99.90
45807;DHT22;31507;51.494;7.518;2023-03-01T03:58:05;-4.20;99.90
45807;DHT22;31507;51.494;7.518;2023-03-01T04:00:44;-4.20;99.90
45807;DHT22;31507;51.494;7.518;2023-03-01T04:03:12;-4.30;99.90
45807;DHT22;31507;51.494;7.518;2023-03-01T04:05:39;-4.40;99.90
45807;DHT22;31507;51.494;7.518;2023-03-01T04:08:05;-4.40;99.90
45807;DHT22;31507;51.494;7.518;2023-03-01T04:10:39;-4.50;99.90
45807;DHT22;31507;51.494;7.518;2023-03-01T04:13:07;-4.50;99.90
45807;DHT22;31507;51.494;7.518;2023-03-01T04:15:33;-4.60;99.90
45807;DHT22;31507;51.494;7.518;2023-03-01T04:17:59;-4.70;99.90
45807;DHT22;31507;51.494;7.518;2023-03-01T04:20:28;-4.70;99.90
45807;DHT22;31507;51.494;7.518;2023-03-01T04:23:10;-4.70;99.90
45807;DHT22;31507;51.494;7.518;2023-03-01T04:25:40;-4.70;99.90
45807;DHT22;31507;51.494;7.518;2023-03-01T04:28:06;-4.70;99.90
45807;DHT22;31507;51.494;7.518;2023-03-01T04:30:32;-4.80;99.90
45807;DHT22;31507;51.494;7.518;2023-03-01T04:33:02;-4.80;99.90
45807;DHT22;31507;51.494;7.518;2023-03-01T04:35:29;-4.80;99.90
45807;DHT22;31507;51.494;7.518;2023-03-01T04:37:55;-4.70;99.90
45807;DHT22;31507;51.494;7.518;2023-03-01T04:40:20;-4.70;99.90
45807;DHT22;31507;51.494;7.518;2023-03-01T04:42:46;-4.70;99.90
45807;DHT22;31507;51.494;7.518;2023-03-01T04:45:15;-4.80;99.90
45807;DHT22;31507;51.494;7.518;2023-03-01T04:47:42;-4.80;99.90
45807;DHT22;31507;51.494;7.518;2023-03-01T04:50:09;-4.80;99.90
45807;DHT22;31507;51.494;7.518;2023-03-01T04:52:35;-4.90;99.90
45807;DHT22;31507;51.494;7.518;2023-03-01T04:55:01;-4.80;99.90
45807;DHT22;31507;51.494;7.518;2023-03-01T04:57:29;-4.90;99.90
45807;DHT22;31507;51.494;7.518;2023-03-01T04:59:54;-4.90;99.90
45807;DHT22;31507;51.494;7.518;2023-03-01T05:02:20;-4.90;99.90
45807;DHT22;31507;51.494;7.518;2023-03-01T05:04:45;-4.90;99.90
45807;DHT22;31507;51.494;7.518;2023-03-01T05:07:11;-4.90;99.90
45807;DHT22;31507;51.494;7.518;2023-03-01T05:09:38;-4.90;99.90
45807;DHT22;31507;51.494;7.518;2023-03-01T05:12:04;-4.80;99.90
45807;DHT22;31507;51.494;7.518;2023-03-01T05:14:30;-4.80;99.90
45807;DHT22;31507;51.494;7.518;2023-03-01T05:16:56;-4.70;99.90
45807;DHT22;31507;51.494;7.518;2023-03-01T05:19:29;-4.70;99.90
45807;DHT22;31507;51.494;7.518;2023-03-01T05:21:56;-4.70;99.90
45807;DHT22;31507;51.494;7.518;2023-03-01T05:24:32;-4.70;99.90
45807;DHT22;31507;51.494;7.518;2023-03-01T05:26:58;-4.70;99.90
45807;DHT22;31507;51.494;7.518;2023-03-01T05:29:26;-4.70;99.90
45807;DHT22;31507;51.494;7.518;2023-03-01T05:31:54;-4.70;99.90
45807;DHT22;31507;51.494;7.518;2023-03-01T05:34:25;-4.70;99.90
45807;DHT22;31507;51.494;7.518;2023-03-01T05:36:52;-4.70;99.90
45807;DHT22;31507;51.494;7.518;2023-03-01T05:39:23;-4.70;99.90
45807;DHT22;31507;51.494;7.518;2023-03-01T05:41:52;-4.70;99.90
45807;DHT22;31507;51.494;7.518;2023-03-01T05:44:19;-4.70;99.90
45807;DHT22;31507;51.494;7.518;2023-03-01T05:46:44;-4.70;99.90
45807;DHT22;31507;51.494;7.518;2023-03-01T05:49:11;-4.70;99.90
45807;DHT22;31507;51.494;7.518;2023-03-01T05:51:39;-4.80;99.90
45807;DHT22;31507;51.494;7.518;2023-03-01T05:54:04;-4.80;99.90
45807;DHT22;31507;51.494;7.518;2023-03-01T05:56:33;-4.80;99.90
45807;DHT22;31507;51.494;7.518;2023-03-01T05:58:59;-4.80;99.90
45807;DHT22;31507;51.494;7.518;2023-03-01T06:01:25;-4.80;99.90
45807;DHT22;31507;51.494;7.518;2023-03-01T06:03:51;-4.80;99.90
45807;DHT22;31507;51.494;7.518;2023-03-01T06:06:16;-4.90;99.90
45807;DHT22;31507;51.494;7.518;2023-03-01T06:08:42;-4.80;99.90
45807;DHT22;31507;51.494;7.518;2023-03-01T06:11:08;-4.80;99.90
45807;DHT22;31507;51.494;7.518;2023-03-01T06:13:33;-4.80;99.90
45807;DHT22;31507;51.494;7.518;2023-03-01T06:15:59;-4.80;99.90
45807;DHT22;31507;51.494;7.518;2023-03-01T06:18:25;-4.70;99.90
45807;DHT22;31507;51.494;7.518;2023-03-01T06:20:54;-4.70;99.90
45807;DHT22;31507;51.494;7.518;2023-03-01T06:23:20;-4.70;99.90
45807;DHT22;31507;51.494;7.518;2023-03-01T06:25:46;-4.70;99.90
45807;DHT22;31507;51.494;7.518;2023-03-01T06:28:11;-4.70;99.90
45807;DHT22;31507;51.494;7.518;2023-03-01T06:30:37;-4.70;99.90
45807;DHT22;31507;51.494;7.518;2023-03-01T06:33:03;-4.70;99.90
45807;DHT22;31507;51.494;7.518;2023-03-01T06:35:29;-4.70;99.90
45807;DHT22;31507;51.494;7.518;2023-03-01T06:37:56;-4.70;99.90
45807;DHT22;31507;51.494;7.518;2023-03-01T06:40:22;-4.70;99.90
45807;DHT22;31507;51.494;7.518;2023-03-01T06:42:49;-4.70;99.90
45807;DHT22;31507;51.494;7.518;2023-03-01T06:45:16;-4.80;99.90
45807;DHT22;31507;51.494;7.518;2023-03-01T06:47:41;-4.80;99.90
45807;DHT22;31507;51.494;7.518;2023-03-01T06:50:08;-4.80;99.90
45807;DHT22;31507;51.494;7.518;2023-03-01T06:52:33;-4.80;99.90
45807;DHT22;31507;51.494;7.518;2023-03-01T06:55:00;-4.90;99.90
45807;DHT22;31507;51.494;7.518;2023-03-01T06:57:25;-4.90;99.90
45807;DHT22;31507;51.494;7.518;2023-03-01T06:59:51;-4.80;99.90
45807;DHT22;31507;51.494;7.518;2023-03-01T07:02:17;-4.70;99.90
45807;DHT22;31507;51.494;7.518;2023-03-01T07:04:43;-4.60;99.90
45807;DHT22;31507;51.494;7.518;2023-03-01T07:07:09;-4.60;99.90
45807;DHT22;31507;51.494;7.518;2023-03-01T07:09:35;-4.50;99.90
45807;DHT22;31507;51.494;7.518;2023-03-01T07:12:00;-4.40;99.90
45807;DHT22;31507;51.494;7.518;2023-03-01T07:14:26;-4.40;99.90
45807;DHT22;31507;51.494;7.518;2023-03-01T07:16:52;-4.30;99.90
45807;DHT22;31507;51.494;7.518;2023-03-01T07:19:18;-4.20;99.90
45807;DHT22;31507;51.494;7.518;2023-03-01T07:21:44;-4.10;99.90
45807;DHT22;31507;51.494;7.518;2023-03-01T07:24:10;-4.00;99.90
45807;DHT22;31507;51.494;7.518;2023-03-01T07:26:36;-3.90;99.90
45807;DHT22;31507;51.494;7.518;2023-03-01T07:29:04;-3.80;99.90
45807;DHT22;31507;51.494;7.518;2023-03-01T07:31:30;-3.70;99.90
45807;DHT22;31507;51.494;7.518;2023-03-01T07:33:56;-3.60;99.90
45807;DHT22;31507;51.494;7.518;2023-03-01T07:36:23;-3.50;99.90
45807;DHT22;31507;51.494;7.518;2023-03-01T07:38:49;-3.30;99.90
45807;DHT22;31507;51.494;7.518;2023-03-01T07:41:15;-3.20;99.90
45807;DHT22;31507;51.494;7.518;2023-03-01T07:43:40;-3.10;99.90
45807;DHT22;31507;51.494;7.518;2023-03-01T07:46:06;-3.00;99.90
45807;DHT22;31507;51.494;7.518;2023-03-01T07:48:32;-2.90;99.90
45807;DHT22;31507;51.494;7.518;2023-03-01T07:51:03;-2.80;99.90
45807;DHT22;31507;51.494;7.518;2023-03-01T07:53:30;-2.70;99.90
45807;DHT22;31507;51.494;7.518;2023-03-01T07:58:28;-2.40;99.90
45807;DHT22;31507;51.494;7.518;2023-03-01T08:00:54;-2.20;99.90
45807;DHT22;31507;51.494;7.518;2023-03-01T08:03:19;-2.00;99.90
45807;DHT22;31507;51.494;7.518;2023-03-01T08:05:45;-1.80;99.90
45807;DHT22;31507;51.494;7.518;2023-03-01T08:08:10;-1.60;99.90
45807;DHT22;31507;51.494;7.518;2023-03-01T08:10:36;-1.40;99.90
45807;DHT22;31507;51.494;7.518;2023-03-01T08:13:02;-1.30;99.90
45807;DHT22;31507;51.494;7.518;2023-03-01T08:15:28;-1.10;99.90
45807;DHT22;31507;51.494;7.518;2023-03-01T08:17:53;-1.00;99.90
45807;DHT22;31507;51.494;7.518;2023-03-01T08:20:19;-0.80;99.90
45807;DHT22;31507;51.494;7.518;2023-03-01T08:22:44;-0.60;99.90
45807;DHT22;31507;51.494;7.518;2023-03-01T08:25:10;-0.50;99.90
45807;DHT22;31507;51.494;7.518;2023-03-01T08:27:36;-0.30;99.90
45807;DHT22;31507;51.494;7.518;2023-03-01T08:30:01;-0.20;99.90
45807;DHT22;31507;51.494;7.518;2023-03-01T08:32:28;-0.10;99.90
45807;DHT22;31507;51.494;7.518;2023-03-01T08:34:54;0.00;99.90
45807;DHT22;31507;51.494;7.518;2023-03-01T08:37:20;0.20;99.90
45807;DHT22;31507;51.494;7.518;2023-03-01T08:39:46;0.30;99.90
45807;DHT22;31507;51.494;7.518;2023-03-01T08:42:12;0.50;99.90
45807;DHT22;31507;51.494;7.518;2023-03-01T08:44:37;0.70;99.90
45807;DHT22;31507;51.494;7.518;2023-03-01T08:47:03;1.00;99.90
45807;DHT22;31507;51.494;7.518;2023-03-01T08:49:30;1.20;99.90
45807;DHT22;31507;51.494;7.518;2023-03-01T08:51:57;1.50;99.90
45807;DHT22;31507;51.494;7.518;2023-03-01T08:54:23;1.70;99.90
45807;DHT22;31507;51.494;7.518;2023-03-01T08:56:49;1.90;99.90
45807;DHT22;31507;51.494;7.518;2023-03-01T08:59:15;2.20;99.90
45807;DHT22;31507;51.494;7.518;2023-03-01T09:01:42;2.30;99.90
45807;DHT22;31507;51.494;7.518;2023-03-01T09:04:10;2.40;99.90
45807;DHT22;31507;51.494;7.518;2023-03-01T09:06:35;2.70;99.90
45807;DHT22;31507;51.494;7.518;2023-03-01T09:09:03;2.70;99.40
45807;DHT22;31507;51.494;7.518;2023-03-01T09:11:29;2.90;99.90
45807;DHT22;31507;51.494;7.518;2023-03-01T09:13:55;3.20;96.80
45807;DHT22;31507;51.494;7.518;2023-03-01T09:16:22;3.20;97.80
45807;DHT22;31507;51.494;7.518;2023-03-01T09:18:52;3.50;96.90
45807;DHT22;31507;51.494;7.518;2023-03-01T09:21:19;3.70;94.10
45807;DHT22;31507;51.494;7.518;2023-03-01T09:23:47;3.70;95.40
45807;DHT22;31507;51.494;7.518;2023-03-01T09:26:15;4.10;93.80
45807;DHT22;31507;51.494;7.518;2023-03-01T09:28:47;4.20;92.70
45807;DHT22;31507;51.494;7.518;2023-03-01T09:31:14;4.50;91.00
45807;DHT22;31507;51.494;7.518;2023-03-01T09:33:41;4.80;90.10
45807;DHT22;31507;51.494;7.518;2023-03-01T09:36:16;4.90;91.10
45807;DHT22;31507;51.494;7.518;2023-03-01T09:38:43;5.00;88.60
45807;DHT22;31507;51.494;7.518;2023-03-01T09:44:15;4.70;86.80
45807;DHT22;31507;51.494;7.518;2023-03-01T09:46:44;5.10;86.70
45807;DHT22;31507;51.494;7.518;2023-03-01T09:49:14;5.50;86.50
45807;DHT22;31507;51.494;7.518;2023-03-01T09:51:43;5.60;83.80
45807;DHT22;31507;51.494;7.518;2023-03-01T09:54:11;5.80;83.00
45807;DHT22;31507;51.494;7.518;2023-03-01T09:56:41;5.90;80.40
45807;DHT22;31507;51.494;7.518;2023-03-01T10:01:58;5.90;79.60
45807;DHT22;31507;51.494;7.518;2023-03-01T10:04:45;5.80;78.80
45807;DHT22;31507;51.494;7.518;2023-03-01T10:09:42;5.70;79.50
45807;DHT22;31507;51.494;7.518;2023-03-01T10:12:14;6.00;79.60
45807;DHT22;31507;51.494;7.518;2023-03-01T10:15:02;6.10;78.80
45807;DHT22;31507;51.494;7.518;2023-03-01T10:17:58;6.00;78.10
45807;DHT22;31507;51.494;7.518;2023-03-01T10:20:48;6.20;77.50
45807;DHT22;31507;51.494;7.518;2023-03-01T10:23:17;6.10;77.60
45807;DHT22;31507;51.494;7.518;2023-03-01T10:31:15;6.40;77.20
45807;DHT22;31507;51.494;7.518;2023-03-01T10:33:41;6.30;75.70
45807;DHT22;31507;51.494;7.518;2023-03-01T10:36:08;6.40;77.60
45807;DHT22;31507;51.494;7.518;2023-03-01T10:38:50;6.40;75.90
45807;DHT22;31507;51.494;7.518;2023-03-01T10:41:18;6.50;75.60
45807;DHT22;31507;51.494;7.518;2023-03-01T10:46:36;6.50;75.90
45807;DHT22;31507;51.494;7.518;2023-03-01T10:49:06;6.60;75.40
45807;DHT22;31507;51.494;7.518;2023-03-01T10:51:32;6.80;75.60
45807;DHT22;31507;51.494;7.518;2023-03-01T10:53:58;7.10;76.00
45807;DHT22;31507;51.494;7.518;2023-03-01T10:56:24;7.20;74.00
45807;DHT22;31507;51.494;7.518;2023-03-01T10:58:59;7.50;73.20
45807;DHT22;31507;51.494;7.518;2023-03-01T11:01:35;7.60;72.50
45807;DHT22;31507;51.494;7.518;2023-03-01T11:06:29;7.50;72.60
45807;DHT22;31507;51.494;7.518;2023-03-01T11:08:54;7.70;72.50
45807;DHT22;31507;51.494;7.518;2023-03-01T11:11:30;7.60;72.90
45807;DHT22;31507;51.494;7.518;2023-03-01T11:14:07;7.40;72.40
45807;DHT22;31507;51.494;7.518;2023-03-01T11:16:38;7.20;72.60
45807;DHT22;31507;51.494;7.518;2023-03-01T11:22:01;7.30;73.50
45807;DHT22;31507;51.494;7.518;2023-03-01T11:27:03;7.60;72.70
45807;DHT22;31507;51.494;7.518;2023-03-01T11:29:37;7.80;70.80
45807;DHT22;31507;51.494;7.518;2023-03-01T11:32:07;7.90;71.00
45807;DHT22;31507;51.494;7.518;2023-03-01T11:34:47;7.90;73.40
45807;DHT22;31507;51.494;7.518;2023-03-01T11:37:30;7.90;70.80
45807;DHT22;31507;51.494;7.518;2023-03-01T11:40:04;7.80;72.60
45807;DHT22;31507;51.494;7.518;2023-03-01T11:42:52;7.80;72.70
45807;DHT22;31507;51.494;7.518;2023-03-01T11:45:23;7.90;71.00
45807;DHT22;31507;51.494;7.518;2023-03-01T11:51:01;8.00;71.20
45807;DHT22;31507;51.494;7.518;2023-03-01T11:56:04;7.10;71.80
45807;DHT22;31507;51.494;7.518;2023-03-01T12:07:01;7.00;71.60
45807;DHT22;31507;51.494;7.518;2023-03-01T12:09:46;6.80;73.40
45807;DHT22;31507;51.494;7.518;2023-03-01T12:20:37;6.30;74.40
45807;DHT22;31507;51.494;7.518;2023-03-01T12:23:16;6.20;73.60
45807;DHT22;31507;51.494;7.518;2023-03-01T12:42:02;6.20;74.00
45807;DHT22;31507;51.494;7.518;2023-03-01T12:50:41;6.60;73.30
45807;DHT22;31507;51.494;7.518;2023-03-01T12:53:25;6.70;73.60
45807;DHT22;31507;51.494;7.518;2023-03-01T12:55:53;6.70;72.40
45807;DHT22;31507;51.494;7.518;2023-03-01T13:01:13;6.70;72.20
45807;DHT22;31507;51.494;7.518;2023-03-01T13:04:06;6.60;72.30
45807;DHT22;31507;51.494;7.518;2023-03-01T13:06:53;6.70;71.80
45807;DHT22;31507;51.494;7.518;2023-03-01T13:18:31;6.90;71.80
45807;DHT22;31507;51.494;7.518;2023-03-01T13:26:10;7.00;70.00
45807;DHT22;31507;51.494;7.518;2023-03-01T13:28:50;6.90;71.40
45807;DHT22;31507;51.494;7.518;2023-03-01T13:33:46;7.40;70.80
45807;DHT22;31507;51.494;7.518;2023-03-01T13:46:59;7.60;69.10
45807;DHT22;31507;51.494;7.518;2023-03-01T13:49:29;7.50;67.50
45807;DHT22;31507;51.494;7.518;2023-03-01T13:51:57;7.30;68.90
45807;DHT22;31507;51.494;7.518;2023-03-01T13:54:29;7.40;68.60
45807;DHT22;31507;51.494;7.518;2023-03-01T13:56:57;7.30;67.40
45807;DHT22;31507;51.494;7.518;2023-03-01T13:59:23;7.30;68.40
45807;DHT22;31507;51.494;7.518;2023-03-01T14:01:58;7.30;67.70
45807;DHT22;31507;51.494;7.518;2023-03-01T14:04:26;7.20;67.50
45807;DHT22;31507;51.494;7.518;2023-03-01T14:07:12;7.20;67.90
45807;DHT22;31507;51.494;7.518;2023-03-01T14:09:41;7.50;68.60
45807;DHT22;31507;51.494;7.518;2023-03-01T14:20:25;7.30;66.00
45807;DHT22;31507;51.494;7.518;2023-03-01T14:22:56;7.20;66.70
45807;DHT22;31507;51.494;7.518;2023-03-01T14:25:31;7.30;67.00
45807;DHT22;31507;51.494;7.518;2023-03-01T14:30:36;7.70;65.90
45807;DHT22;31507;51.494;7.518;2023-03-01T14:33:06;7.60;65.50
45807;DHT22;31507;51.494;7.518;2023-03-01T14:35:42;7.50;66.80
45807;DHT22;31507;51.494;7.518;2023-03-01T14:38:21;7.50;66.40
45807;DHT22;31507;51.494;7.518;2023-03-01T14:40:51;7.40;65.90
45807;DHT22;31507;51.494;7.518;2023-03-01T14:43:21;7.40;65.90
45807;DHT22;31507;51.494;7.518;2023-03-01T14:45:49;7.50;66.60
45807;DHT22;31507;51.494;7.518;2023-03-01T14:48:16;7.40;66.10
45807;DHT22;31507;51.494;7.518;2023-03-01T14:50:43;7.50;66.40
45807;DHT22;31507;51.494;7.518;2023-03-01T14:53:19;7.60;66.50
45807;DHT22;31507;51.494;7.518;2023-03-01T14:55:47;7.60;65.70
45807;DHT22;31507;51.494;7.518;2023-03-01T14:58:17;7.50;66.80
45807;DHT22;31507;51.494;7.518;2023-03-01T15:00:58;7.60;66.20
45807;DHT22;31507;51.494;7.518;2023-03-01T15:03:45;7.60;66.00
45807;DHT22;31507;51.494;7.518;2023-03-01T15:06:15;7.50;65.20
45807;DHT22;31507;51.494;7.518;2023-03-01T15:08:46;7.40;65.60
45807;DHT22;31507;51.494;7.518;2023-03-01T15:13:48;7.40;65.60
45807;DHT22;31507;51.494;7.518;2023-03-01T15:16:18;7.40;65.20
45807;DHT22;31507;51.494;7.518;2023-03-01T15:19:02;7.50;65.10
45807;DHT22;31507;51.494;7.518;2023-03-01T15:21:38;7.40;65.10
45807;DHT22;31507;51.494;7.518;2023-03-01T15:26:42;7.30;65.80
45807;DHT22;31507;51.494;7.518;2023-03-01T15:29:18;7.30;66.30
45807;DHT22;31507;51.494;7.518;2023-03-01T15:31:58;7.20;66.60
45807;DHT22;31507;51.494;7.518;2023-03-01T15:34:37;7.20;67.30
45807;DHT22;31507;51.494;7.518;2023-03-01T15:37:05;7.20;66.60
45807;DHT22;31507;51.494;7.518;2023-03-01T15:39:42;7.10;66.80
45807;DHT22;31507;51.494;7.518;2023-03-01T15:45:10;6.80;66.90
45807;DHT22;31507;51.494;7.518;2023-03-01T15:47:51;6.70;67.10
45807;DHT22;31507;51.494;7.518;2023-03-01T15:50:21;6.80;67.00
45807;DHT22;31507;51.494;7.518;2023-03-01T15:52:47;6.70;67.10
45807;DHT22;31507;51.494;7.518;2023-03-01T15:55:28;6.50;67.10
45807;DHT22;31507;51.494;7.518;2023-03-01T15:58:00;6.10;68.00
45807;DHT22;31507;51.494;7.518;2023-03-01T16:00:26;5.90;69.20
45807;DHT22;31507;51.494;7.518;2023-03-01T16:02:52;5.60;69.60
45807;DHT22;31507;51.494;7.518;2023-03-01T16:05:30;5.40;69.70
45807;DHT22;31507;51.494;7.518;2023-03-01T16:08:00;5.30;70.40
45807;DHT22;31507;51.494;7.518;2023-03-01T16:10:26;5.10;70.60
45807;DHT22;31507;51.494;7.518;2023-03-01T16:12:52;5.00;70.90
45807;DHT22;31507;51.494;7.518;2023-03-01T16:15:22;4.90;71.50
45807;DHT22;31507;51.494;7.518;2023-03-01T16:17:48;4.90;71.20
45807;DHT22;31507;51.494;7.518;2023-03-01T16:20:14;4.80;71.50
45807;DHT22;31507;51.494;7.518;2023-03-01T16:22:45;4.80;71.90
45807;DHT22;31507;51.494;7.518;2023-03-01T16:25:13;4.70;71.90
45807;DHT22;31507;51.494;7.518;2023-03-01T16:27:42;4.60;72.40
45807;DHT22;31507;51.494;7.518;2023-03-01T16:30:08;4.50;72.40
45807;DHT22;31507;51.494;7.518;2023-03-01T16:32:41;4.60;71.90
45807;DHT22;31507;51.494;7.518;2023-03-01T16:35:08;4.50;72.40
45807;DHT22;31507;51.494;7.518;2023-03-01T16:37:36;4.50;72.40
45807;DHT22;31507;51.494;7.518;2023-03-01T16:40:02;4.40;72.70
45807;DHT22;31507;51.494;7.518;2023-03-01T16:42:33;4.30;73.40
45807;DHT22;31507;51.494;7.518;2023-03-01T16:44:59;4.20;73.20
45807;DHT22;31507;51.494;7.518;2023-03-01T16:47:26;4.20;73.30
45807;DHT22;31507;51.494;7.518;2023-03-01T16:49:52;4.10;73.20
45807;DHT22;31507;51.494;7.518;2023-03-01T16:52:19;4.10;73.00
45807;DHT22;31507;51.494;7.518;2023-03-01T16:54:45;4.00;73.10
45807;DHT22;31507;51.494;7.518;2023-03-01T16:57:10;3.90;73.50
45807;DHT22;31507;51.494;7.518;2023-03-01T16:59:36;3.70;73.90
45807;DHT22;31507;51.494;7.518;2023-03-01T17:02:03;3.60;74.10
45807;DHT22;31507;51.494;7.518;2023-03-01T17:04:29;3.50;74.20
45807;DHT22;31507;51.494;7.518;2023-03-01T17:06:55;3.50;74.40
45807;DHT22;31507;51.494;7.518;2023-03-01T17:09:20;3.60;74.30
45807;DHT22;31507;51.494;7.518;2023-03-01T17:11:48;3.60;74.20
45807;DHT22;31507;51.494;7.518;2023-03-01T17:14:14;3.50;73.80
45807;DHT22;31507;51.494;7.518;2023-03-01T17:16:41;3.50;74.00
45807;DHT22;31507;51.494;7.518;2023-03-01T17:19:07;3.40;74.40
45807;DHT22;31507;51.494;7.518;2023-03-01T17:21:33;3.40;74.50
45807;DHT22;31507;51.494;7.518;2023-03-01T17:23:58;3.30;74.80
45807;DHT22;31507;51.494;7.518;2023-03-01T17:26:25;3.20;74.80
45807;DHT22;31507;51.494;7.518;2023-03-01T17:28:50;3.10;74.90
45807;DHT22;31507;51.494;7.518;2023-03-01T17:31:18;3.10;75.40
45807;DHT22;31507;51.494;7.518;2023-03-01T17:33:43;3.00;74.80
45807;DHT22;31507;51.494;7.518;2023-03-01T17:36:09;3.00;75.20
45807;DHT22;31507;51.494;7.518;2023-03-01T17:38:35;2.90;75.20
45807;DHT22;31507;51.494;7.518;2023-03-01T17:41:02;2.80;75.40
45807;DHT22;31507;51.494;7.518;2023-03-01T17:43:28;2.90;75.10
45807;DHT22;31507;51.494;7.518;2023-03-01T17:45:55;2.80;75.30
45807;DHT22;31507;51.494;7.518;2023-03-01T17:48:20;2.80;75.30
45807;DHT22;31507;51.494;7.518;2023-03-01T17:50:46;2.70;75.80
45807;DHT22;31507;51.494;7.518;2023-03-01T17:53:12;2.60;76.10
45807;DHT22;31507;51.494;7.518;2023-03-01T17:55:39;2.60;76.20
45807;DHT22;31507;51.494;7.518;2023-03-01T17:58:06;2.60;76.50
45807;DHT22;31507;51.494;7.518;2023-03-01T18:00:33;2.50;76.50
45807;DHT22;31507;51.494;7.518;2023-03-01T18:02:59;2.70;76.40
45807;DHT22;31507;51.494;7.518;2023-03-01T18:05:25;2.70;76.40
45807;DHT22;31507;51.494;7.518;2023-03-01T18:07:52;2.60;76.70
45807;DHT22;31507;51.494;7.518;2023-03-01T18:10:18;2.50;77.00